sensor_id;sensor_type;location;lat;lon;timestamp;temperature;humidity
68556;HTU21D;55544;51.032;5.866;2022-08-04T00:04:58;27.29;53.14
68556;HTU21D;55544;51.032;5.866;2022-08-04T00:10:21;26.77;54.81
68556;HTU21D;55544;51.032;5.866;2022-08-04T00:12:50;26.82;54.52
68556;HTU21D;55544;51.032;5.866;2022-08-04T00:15:19;26.96;54.06
68556;HTU21D;55544;51.032;5.866;2022-08-04T00:17:59;27.08;53.56
68556;HTU21D;55544;51.032;5.866;2022-08-04T00:20:37;27.15;53.20
68556;HTU21D;55544;51.032;5.866;2022-08-04T00:23:05;27.21;53.01
68556;HTU21D;55544;51.032;5.866;2022-08-04T00:25:31;27.23;52.89
68556;HTU21D;55544;51.032;5.866;2022-08-04T00:27:59;27.24;52.89
68556;HTU21D;55544;51.032;5.866;2022-08-04T00:30:27;27.25;52.83
68556;HTU21D;55544;51.032;5.866;2022-08-04T00:32:56;27.16;52.96
68556;HTU21D;55544;51.032;5.866;2022-08-04T00:35:23;26.93;53.88
68556;HTU21D;55544;51.032;5.866;2022-08-04T00:37:50;26.86;54.32
68556;HTU21D;55544;51.032;5.866;2022-08-04T00:43:51;26.86;53.98
68556;HTU21D;55544;51.032;5.866;2022-08-04T00:53:00;26.63;54.52
68556;HTU21D;55544;51.032;5.866;2022-08-04T01:16:08;26.27;55.77
68556;HTU21D;55544;51.032;5.866;2022-08-04T01:29:21;26.36;54.84
68556;HTU21D;55544;51.032;5.866;2022-08-04T01:31:59;26.36;54.66
68556;HTU21D;55544;51.032;5.866;2022-08-04T01:34:30;26.35;54.52
68556;HTU21D;55544;51.032;5.866;2022-08-04T01:37:07;26.32;54.50
68556;HTU21D;55544;51.032;5.866;2022-08-04T01:39:45;26.33;54.46
68556;HTU21D;55544;51.032;5.866;2022-08-04T01:42:17;26.32;54.39
68556;HTU21D;55544;51.032;5.866;2022-08-04T01:44:47;26.33;54.28
68556;HTU21D;55544;51.032;5.866;2022-08-04T01:47:16;26.34;54.22
68556;HTU21D;55544;51.032;5.866;2022-08-04T01:49:48;26.33;54.16
68556;HTU21D;55544;51.032;5.866;2022-08-04T01:52:16;26.32;54.01
68556;HTU21D;55544;51.032;5.866;2022-08-04T01:54:42;26.28;54.05
68556;HTU21D;55544;51.032;5.866;2022-08-04T01:57:14;26.28;54.04
68556;HTU21D;55544;51.032;5.866;2022-08-04T01:59:44;26.31;53.91
68556;HTU21D;55544;51.032;5.866;2022-08-04T02:02:10;26.23;54.12
68556;HTU21D;55544;51.032;5.866;2022-08-04T02:04:36;26.21;54.05
68556;HTU21D;55544;51.032;5.866;2022-08-04T02:12:28;26.15;53.90
68556;HTU21D;55544;51.032;5.866;2022-08-04T02:18:04;26.10;54.24
68556;HTU21D;55544;51.032;5.866;2022-08-04T02:20:42;26.10;54.37
68556;HTU21D;55544;51.032;5.866;2022-08-04T02:23:29;26.06;54.45
68556;HTU21D;55544;51.032;5.866;2022-08-04T02:25:59;26.05;54.48
68556;HTU21D;55544;51.032;5.866;2022-08-04T02:28:39;26.04;54.39
68556;HTU21D;55544;51.032;5.866;2022-08-04T02:36:35;25.96;54.68
68556;HTU21D;55544;51.032;5.866;2022-08-04T02:39:04;25.93;54.76
68556;HTU21D;55544;51.032;5.866;2022-08-04T02:41:32;25.89;54.83
68556;HTU21D;55544;51.032;5.866;2022-08-04T02:44:01;25.84;55.03
68556;HTU21D;55544;51.032;5.866;2022-08-04T02:46:28;25.80;55.07
68556;HTU21D;55544;51.032;5.866;2022-08-04T02:48:55;25.77;55.15
68556;HTU21D;55544;51.032;5.866;2022-08-04T02:51:31;25.73;55.23
68556;HTU21D;55544;51.032;5.866;2022-08-04T02:53:59;25.69;55.31
68556;HTU21D;55544;51.032;5.866;2022-08-04T02:56:29;25.65;55.58
68556;HTU21D;55544;51.032;5.866;2022-08-04T02:59:02;25.62;55.84
68556;HTU21D;55544;51.032;5.866;2022-08-04T03:01:29;25.58;55.83
68556;HTU21D;55544;51.032;5.866;2022-08-04T03:09:50;25.34;56.39
68556;HTU21D;55544;51.032;5.866;2022-08-04T03:18:20;25.14;57.89
68556;HTU21D;55544;51.032;5.866;2022-08-04T03:24:20;25.05;57.64
68556;HTU21D;55544;51.032;5.866;2022-08-04T03:30:06;25.02;57.66
68556;HTU21D;55544;51.032;5.866;2022-08-04T03:33:08;24.92;57.90
68556;HTU21D;55544;51.032;5.866;2022-08-04T03:41:44;24.66;58.77
68556;HTU21D;55544;51.032;5.866;2022-08-04T04:22:29;24.41;59.70
68556;HTU21D;55544;51.032;5.866;2022-08-04T04:28:28;24.43;59.83
68556;HTU21D;55544;51.032;5.866;2022-08-04T04:31:32;24.43;60.00
68556;HTU21D;55544;51.032;5.866;2022-08-04T04:45:11;24.40;60.37
68556;HTU21D;55544;51.032;5.866;2022-08-04T04:50:20;24.43;60.33
68556;HTU21D;55544;51.032;5.866;2022-08-04T04:52:59;24.42;60.42
68556;HTU21D;55544;51.032;5.866;2022-08-04T04:55:32;24.46;60.45
68556;HTU21D;55544;51.032;5.866;2022-08-04T04:58:00;24.45;60.70
68556;HTU21D;55544;51.032;5.866;2022-08-04T05:09:12;24.24;61.79
68556;HTU21D;55544;51.032;5.866;2022-08-04T05:12:13;24.31;61.61
68556;HTU21D;55544;51.032;5.866;2022-08-04T05:14:49;24.43;61.34
68556;HTU21D;55544;51.032;5.866;2022-08-04T05:17:22;24.51;61.28
68556;HTU21D;55544;51.032;5.866;2022-08-04T05:20:07;24.60;61.67
68556;HTU21D;55544;51.032;5.866;2022-08-04T05:25:26;24.76;61.77
68556;HTU21D;55544;51.032;5.866;2022-08-04T05:28:02;24.84;61.68
68556;HTU21D;55544;51.032;5.866;2022-08-04T05:30:35;24.93;61.46
68556;HTU21D;55544;51.032;5.866;2022-08-04T05:33:08;25.02;61.09
68556;HTU21D;55544;51.032;5.866;2022-08-04T05:35:42;25.08;60.67
68556;HTU21D;55544;51.032;5.866;2022-08-04T05:38:13;25.09;60.64
68556;HTU21D;55544;51.032;5.866;2022-08-04T05:40:42;25.10;60.60
68556;HTU21D;55544;51.032;5.866;2022-08-04T05:43:08;25.13;60.89
68556;HTU21D;55544;51.032;5.866;2022-08-04T05:45:34;25.16;60.90
68556;HTU21D;55544;51.032;5.866;2022-08-04T05:48:07;25.27;60.51
68556;HTU21D;55544;51.032;5.866;2022-08-04T05:50:34;25.36;59.99
68556;HTU21D;55544;51.032;5.866;2022-08-04T05:53:01;25.45;59.40
68556;HTU21D;55544;51.032;5.866;2022-08-04T05:55:29;25.48;59.12
68556;HTU21D;55544;51.032;5.866;2022-08-04T05:58:00;25.58;58.75
68556;HTU21D;55544;51.032;5.866;2022-08-04T06:00:28;25.68;58.01
68556;HTU21D;55544;51.032;5.866;2022-08-04T06:02:57;25.81;57.32
68556;HTU21D;55544;51.032;5.866;2022-08-04T06:05:24;25.93;56.92
68556;HTU21D;55544;51.032;5.866;2022-08-04T06:07:50;26.05;56.43
68556;HTU21D;55544;51.032;5.866;2022-08-04T06:10:16;26.17;55.91
68556;HTU21D;55544;51.032;5.866;2022-08-04T06:12:51;26.26;55.69
68556;HTU21D;55544;51.032;5.866;2022-08-04T06:15:20;26.35;55.52
68556;HTU21D;55544;51.032;5.866;2022-08-04T06:17:55;26.42;54.73
68556;HTU21D;55544;51.032;5.866;2022-08-04T06:20:27;26.48;54.44
68556;HTU21D;55544;51.032;5.866;2022-08-04T06:22:58;26.54;54.36
68556;HTU21D;55544;51.032;5.866;2022-08-04T06:25:29;26.58;53.86
68556;HTU21D;55544;51.032;5.866;2022-08-04T06:27:57;26.65;53.75
68556;HTU21D;55544;51.032;5.866;2022-08-04T06:30:29;26.67;53.68
68556;HTU21D;55544;51.032;5.866;2022-08-04T06:32:58;26.71;53.97
68556;HTU21D;55544;51.032;5.866;2022-08-04T06:35:29;26.77;53.94
68556;HTU21D;55544;51.032;5.866;2022-08-04T06:37:56;26.87;53.86
68556;HTU21D;55544;51.032;5.866;2022-08-04T06:40:24;26.96;54.39
68556;HTU21D;55544;51.032;5.866;2022-08-04T06:42:52;27.01;54.17
68556;HTU21D;55544;51.032;5.866;2022-08-04T06:45:19;27.08;54.02
68556;HTU21D;55544;51.032;5.866;2022-08-04T06:47:47;27.11;53.97
68556;HTU21D;55544;51.032;5.866;2022-08-04T06:50:15;27.14;54.36
68556;HTU21D;55544;51.032;5.866;2022-08-04T06:52:43;27.20;54.44
68556;HTU21D;55544;51.032;5.866;2022-08-04T06:55:10;27.25;54.41
68556;HTU21D;55544;51.032;5.866;2022-08-04T06:57:37;27.32;53.47
68556;HTU21D;55544;51.032;5.866;2022-08-04T07:00:08;27.37;53.07
68556;HTU21D;55544;51.032;5.866;2022-08-04T07:02:50;27.44;51.59
68556;HTU21D;55544;51.032;5.866;2022-08-04T07:05:19;27.51;51.08
68556;HTU21D;55544;51.032;5.866;2022-08-04T07:07:45;27.59;50.71
68556;HTU21D;55544;51.032;5.866;2022-08-04T07:10:11;27.71;49.99
68556;HTU21D;55544;51.032;5.866;2022-08-04T07:12:39;27.85;49.29
68556;HTU21D;55544;51.032;5.866;2022-08-04T07:15:07;27.89;49.67
68556;HTU21D;55544;51.032;5.866;2022-08-04T07:17:36;28.01;49.63
68556;HTU21D;55544;51.032;5.866;2022-08-04T07:20:04;28.11;49.10
68556;HTU21D;55544;51.032;5.866;2022-08-04T07:22:30;28.19;49.24
68556;HTU21D;55544;51.032;5.866;2022-08-04T07:24:57;28.34;48.90
68556;HTU21D;55544;51.032;5.866;2022-08-04T07:27:25;28.47;48.52
68556;HTU21D;55544;51.032;5.866;2022-08-04T07:29:51;28.61;48.60
68556;HTU21D;55544;51.032;5.866;2022-08-04T07:32:20;28.76;48.70
68556;HTU21D;55544;51.032;5.866;2022-08-04T07:34:50;28.93;48.69
68556;HTU21D;55544;51.032;5.866;2022-08-04T07:37:17;29.06;48.05
68556;HTU21D;55544;51.032;5.866;2022-08-04T07:39:43;29.15;47.49
68556;HTU21D;55544;51.032;5.866;2022-08-04T07:42:10;29.22;47.36
68556;HTU21D;55544;51.032;5.866;2022-08-04T07:44:36;29.32;47.28
68556;HTU21D;55544;51.032;5.866;2022-08-04T07:47:05;29.43;47.20
68556;HTU21D;55544;51.032;5.866;2022-08-04T07:49:32;29.57;46.61
68556;HTU21D;55544;51.032;5.866;2022-08-04T07:51:58;29.65;46.70
68556;HTU21D;55544;51.032;5.866;2022-08-04T07:54:25;29.80;46.10
68556;HTU21D;55544;51.032;5.866;2022-08-04T07:56:52;29.87;45.37
68556;HTU21D;55544;51.032;5.866;2022-08-04T07:59:18;29.95;44.08
68556;HTU21D;55544;51.032;5.866;2022-08-04T08:01:45;29.97;43.43
68556;HTU21D;55544;51.032;5.866;2022-08-04T08:04:12;29.97;43.59
68556;HTU21D;55544;51.032;5.866;2022-08-04T08:06:38;30.08;43.29
68556;HTU21D;55544;51.032;5.866;2022-08-04T08:09:10;30.03;43.45
68556;HTU21D;55544;51.032;5.866;2022-08-04T08:11:36;30.05;43.38
68556;HTU21D;55544;51.032;5.866;2022-08-04T08:14:03;30.12;43.51
68556;HTU21D;55544;51.032;5.866;2022-08-04T08:16:29;30.21;43.12
68556;HTU21D;55544;51.032;5.866;2022-08-04T08:18:58;30.21;42.65
68556;HTU21D;55544;51.032;5.866;2022-08-04T08:21:25;30.22;42.76
68556;HTU21D;55544;51.032;5.866;2022-08-04T08:23:51;30.27;42.76
68556;HTU21D;55544;51.032;5.866;2022-08-04T08:26:17;30.30;42.96
68556;HTU21D;55544;51.032;5.866;2022-08-04T08:28:44;30.44;43.04
68556;HTU21D;55544;51.032;5.866;2022-08-04T08:31:10;30.64;42.84
68556;HTU21D;55544;51.032;5.866;2022-08-04T08:33:36;30.93;42.54
68556;HTU21D;55544;51.032;5.866;2022-08-04T08:38:47;31.25;41.29
68556;HTU21D;55544;51.032;5.866;2022-08-04T08:56:11;31.54;41.23
68556;HTU21D;55544;51.032;5.866;2022-08-04T09:12:58;31.90;38.91
68556;HTU21D;55544;51.032;5.866;2022-08-04T09:15:46;32.00;38.55
68556;HTU21D;55544;51.032;5.866;2022-08-04T09:18:40;32.07;38.72
68556;HTU21D;55544;51.032;5.866;2022-08-04T09:21:17;32.11;38.42
68556;HTU21D;55544;51.032;5.866;2022-08-04T09:24:10;32.18;38.40
68556;HTU21D;55544;51.032;5.866;2022-08-04T09:26:48;32.25;38.42
68556;HTU21D;55544;51.032;5.866;2022-08-04T09:29:20;32.23;38.45
68556;HTU21D;55544;51.032;5.866;2022-08-04T09:41:08;32.23;38.95
68556;HTU21D;55544;51.032;5.866;2022-08-04T09:48:52;31.92;38.82
68556;HTU21D;55544;51.032;5.866;2022-08-04T09:57:12;31.76;38.72
68556;HTU21D;55544;51.032;5.866;2022-08-04T09:59:45;31.82;39.14
68556;HTU21D;55544;51.032;5.866;2022-08-04T10:02:21;31.93;38.17
68556;HTU21D;55544;51.032;5.866;2022-08-04T10:04:52;31.79;38.00
68556;HTU21D;55544;51.032;5.866;2022-08-04T10:07:50;31.50;38.86
68556;HTU21D;55544;51.032;5.866;2022-08-04T10:13:37;31.28;40.65
68556;HTU21D;55544;51.032;5.866;2022-08-04T10:18:53;31.36;41.56
68556;HTU21D;55544;51.032;5.866;2022-08-04T10:32:36;30.87;44.66
68556;HTU21D;55544;51.032;5.866;2022-08-04T10:35:22;30.99;44.51
68556;HTU21D;55544;51.032;5.866;2022-08-04T10:40:57;31.05;44.68
68556;HTU21D;55544;51.032;5.866;2022-08-04T10:43:48;31.00;44.64
68556;HTU21D;55544;51.032;5.866;2022-08-04T10:46:46;30.96;44.83
68556;HTU21D;55544;51.032;5.866;2022-08-04T10:49:33;30.98;44.93
68556;HTU21D;55544;51.032;5.866;2022-08-04T10:52:45;30.96;44.48
68556;HTU21D;55544;51.032;5.866;2022-08-04T10:55:19;30.98;44.68
68556;HTU21D;55544;51.032;5.866;2022-08-04T10:58:00;30.95;44.67
68556;HTU21D;55544;51.032;5.866;2022-08-04T11:00:28;30.85;44.74
68556;HTU21D;55544;51.032;5.866;2022-08-04T11:05:57;30.65;44.71
68556;HTU21D;55544;51.032;5.866;2022-08-04T11:08:53;30.64;44.38
68556;HTU21D;55544;51.032;5.866;2022-08-04T11:11:38;30.65;44.92
68556;HTU21D;55544;51.032;5.866;2022-08-04T11:14:12;30.71;45.45
68556;HTU21D;55544;51.032;5.866;2022-08-04T11:16:52;30.82;45.49
68556;HTU21D;55544;51.032;5.866;2022-08-04T11:22:13;30.97;45.19
68556;HTU21D;55544;51.032;5.866;2022-08-04T11:25:09;30.86;44.65
68556;HTU21D;55544;51.032;5.866;2022-08-04T11:28:02;30.81;44.76
68556;HTU21D;55544;51.032;5.866;2022-08-04T11:39:13;31.01;44.63
68556;HTU21D;55544;51.032;5.866;2022-08-04T11:41:50;31.34;44.01
68556;HTU21D;55544;51.032;5.866;2022-08-04T11:44:42;31.67;43.23
68556;HTU21D;55544;51.032;5.866;2022-08-04T11:49:59;31.99;42.42
68556;HTU21D;55544;51.032;5.866;2022-08-04T11:52:29;32.01;42.42
68556;HTU21D;55544;51.032;5.866;2022-08-04T11:54:57;32.07;42.59
68556;HTU21D;55544;51.032;5.866;2022-08-04T11:57:24;32.08;42.46
68556;HTU21D;55544;51.032;5.866;2022-08-04T11:59:54;32.07;42.22
68556;HTU21D;55544;51.032;5.866;2022-08-04T12:05:08;32.07;42.34
68556;HTU21D;55544;51.032;5.866;2022-08-04T12:13:02;32.26;42.48
68556;HTU21D;55544;51.032;5.866;2022-08-04T12:16:04;32.40;41.81
68556;HTU21D;55544;51.032;5.866;2022-08-04T12:18:51;32.49;41.67
68556;HTU21D;55544;51.032;5.866;2022-08-04T12:21:22;32.47;41.97
68556;HTU21D;55544;51.032;5.866;2022-08-04T12:24:00;32.54;42.07
68556;HTU21D;55544;51.032;5.866;2022-08-04T12:26:36;32.66;41.65
68556;HTU21D;55544;51.032;5.866;2022-08-04T12:29:05;32.73;41.47
68556;HTU21D;55544;51.032;5.866;2022-08-04T12:31:40;32.81;40.95
68556;HTU21D;55544;51.032;5.866;2022-08-04T12:34:16;32.86;40.88
68556;HTU21D;55544;51.032;5.866;2022-08-04T12:36:58;32.94;40.08
68556;HTU21D;55544;51.032;5.866;2022-08-04T12:39:28;33.03;40.01
68556;HTU21D;55544;51.032;5.866;2022-08-04T12:42:16;33.12;39.97
68556;HTU21D;55544;51.032;5.866;2022-08-04T12:44:45;33.30;39.16
68556;HTU21D;55544;51.032;5.866;2022-08-04T12:47:16;33.46;39.07
68556;HTU21D;55544;51.032;5.866;2022-08-04T12:49:46;33.59;39.62
68556;HTU21D;55544;51.032;5.866;2022-08-04T12:52:16;33.73;38.67
68556;HTU21D;55544;51.032;5.866;2022-08-04T12:54:47;33.82;38.11
68556;HTU21D;55544;51.032;5.866;2022-08-04T12:57:17;33.89;38.35
68556;HTU21D;55544;51.032;5.866;2022-08-04T12:59:44;33.95;38.46
68556;HTU21D;55544;51.032;5.866;2022-08-04T13:02:16;34.00;37.88
68556;HTU21D;55544;51.032;5.866;2022-08-04T13:04:44;34.00;37.68
68556;HTU21D;55544;51.032;5.866;2022-08-04T13:07:17;33.94;37.57
68556;HTU21D;55544;51.032;5.866;2022-08-04T13:09:45;33.93;37.49
68556;HTU21D;55544;51.032;5.866;2022-08-04T13:12:24;33.93;37.49
68556;HTU21D;55544;51.032;5.866;2022-08-04T13:14:59;33.71;37.56
68556;HTU21D;55544;51.032;5.866;2022-08-04T13:18:04;33.38;38.44
68556;HTU21D;55544;51.032;5.866;2022-08-04T13:20:35;33.21;38.96
68556;HTU21D;55544;51.032;5.866;2022-08-04T13:23:10;33.19;39.12
68556;HTU21D;55544;51.032;5.866;2022-08-04T13:25:43;33.20;39.06
68556;HTU21D;55544;51.032;5.866;2022-08-04T13:28:21;32.98;39.27
68556;HTU21D;55544;51.032;5.866;2022-08-04T13:30:53;32.81;39.99
68556;HTU21D;55544;51.032;5.866;2022-08-04T13:33:27;32.75;40.51
68556;HTU21D;55544;51.032;5.866;2022-08-04T13:35:56;32.79;40.88
68556;HTU21D;55544;51.032;5.866;2022-08-04T13:38:24;32.88;40.80
68556;HTU21D;55544;51.032;5.866;2022-08-04T13:40:51;32.97;40.42
68556;HTU21D;55544;51.032;5.866;2022-08-04T13:43:27;32.93;40.48
68556;HTU21D;55544;51.032;5.866;2022-08-04T13:46:03;32.93;40.84
68556;HTU21D;55544;51.032;5.866;2022-08-04T13:48:36;32.98;40.88
68556;HTU21D;55544;51.032;5.866;2022-08-04T13:51:04;33.03;40.15
68556;HTU21D;55544;51.032;5.866;2022-08-04T13:53:33;32.97;40.10
68556;HTU21D;55544;51.032;5.866;2022-08-04T13:56:02;32.92;40.68
68556;HTU21D;55544;51.032;5.866;2022-08-04T13:58:34;32.84;40.39
68556;HTU21D;55544;51.032;5.866;2022-08-04T14:01:19;32.82;41.22
68556;HTU21D;55544;51.032;5.866;2022-08-04T14:04:02;32.85;41.55
68556;HTU21D;55544;51.032;5.866;2022-08-04T14:06:31;32.84;41.61
68556;HTU21D;55544;51.032;5.866;2022-08-04T14:09:11;32.85;40.99
68556;HTU21D;55544;51.032;5.866;2022-08-04T14:11:49;32.81;40.72
68556;HTU21D;55544;51.032;5.866;2022-08-04T14:14:26;32.79;41.23
68556;HTU21D;55544;51.032;5.866;2022-08-04T14:17:01;32.78;41.29
68556;HTU21D;55544;51.032;5.866;2022-08-04T14:19:46;32.82;41.30
68556;HTU21D;55544;51.032;5.866;2022-08-04T14:27:23;32.79;42.56
68556;HTU21D;55544;51.032;5.866;2022-08-04T14:29:49;32.71;43.26
68556;HTU21D;55544;51.032;5.866;2022-08-04T14:32:15;32.60;43.70
68556;HTU21D;55544;51.032;5.866;2022-08-04T14:34:42;32.57;43.67
68556;HTU21D;55544;51.032;5.866;2022-08-04T14:37:10;32.57;43.51
68556;HTU21D;55544;51.032;5.866;2022-08-04T14:39:45;32.59;43.48
68556;HTU21D;55544;51.032;5.866;2022-08-04T14:42:13;32.62;43.73
68556;HTU21D;55544;51.032;5.866;2022-08-04T14:44:57;32.61;43.44
68556;HTU21D;55544;51.032;5.866;2022-08-04T14:47:39;32.62;43.34
68556;HTU21D;55544;51.032;5.866;2022-08-04T14:50:07;32.60;43.25
68556;HTU21D;55544;51.032;5.866;2022-08-04T14:52:33;32.62;43.57
68556;HTU21D;55544;51.032;5.866;2022-08-04T14:57:40;32.75;43.03
68556;HTU21D;55544;51.032;5.866;2022-08-04T15:00:06;32.79;42.93
68556;HTU21D;55544;51.032;5.866;2022-08-04T15:02:32;32.82;42.68
68556;HTU21D;55544;51.032;5.866;2022-08-04T15:05:01;32.84;42.69
68556;HTU21D;55544;51.032;5.866;2022-08-04T15:07:29;32.92;42.45
68556;HTU21D;55544;51.032;5.866;2022-08-04T15:09:55;33.01;42.41
68556;HTU21D;55544;51.032;5.866;2022-08-04T15:12:22;33.11;41.98
68556;HTU21D;55544;51.032;5.866;2022-08-04T15:14:48;33.25;41.80
68556;HTU21D;55544;51.032;5.866;2022-08-04T15:17:14;33.42;41.38
68556;HTU21D;55544;51.032;5.866;2022-08-04T15:19:40;33.56;40.91
68556;HTU21D;55544;51.032;5.866;2022-08-04T15:22:06;33.64;40.88
68556;HTU21D;55544;51.032;5.866;2022-08-04T15:24:32;33.76;40.63
68556;HTU21D;55544;51.032;5.866;2022-08-04T15:27:00;33.87;40.50
68556;HTU21D;55544;51.032;5.866;2022-08-04T15:29:38;33.86;40.36
68556;HTU21D;55544;51.032;5.866;2022-08-04T15:32:08;33.91;40.55
68556;HTU21D;55544;51.032;5.866;2022-08-04T15:34:51;33.97;40.40
68556;HTU21D;55544;51.032;5.866;2022-08-04T15:37:32;34.10;40.02
68556;HTU21D;55544;51.032;5.866;2022-08-04T15:42:46;34.63;39.70
68556;HTU21D;55544;51.032;5.866;2022-08-04T15:47:42;35.25;38.62
68556;HTU21D;55544;51.032;5.866;2022-08-04T15:50:08;35.33;38.12
68556;HTU21D;55544;51.032;5.866;2022-08-04T15:55:34;35.19;37.72
68556;HTU21D;55544;51.032;5.866;2022-08-04T15:58:05;35.26;37.74
68556;HTU21D;55544;51.032;5.866;2022-08-04T16:19:09;35.88;35.85
68556;HTU21D;55544;51.032;5.866;2022-08-04T16:21:56;35.80;36.05
68556;HTU21D;55544;51.032;5.866;2022-08-04T16:24:29;35.65;36.33
68556;HTU21D;55544;51.032;5.866;2022-08-04T16:26:57;35.57;36.67
68556;HTU21D;55544;51.032;5.866;2022-08-04T16:29:34;35.59;36.29
68556;HTU21D;55544;51.032;5.866;2022-08-04T16:37:22;35.52;36.51
68556;HTU21D;55544;51.032;5.866;2022-08-04T16:39:48;35.53;36.27
68556;HTU21D;55544;51.032;5.866;2022-08-04T16:42:30;35.55;35.97
68556;HTU21D;55544;51.032;5.866;2022-08-04T16:45:00;35.59;36.04
68556;HTU21D;55544;51.032;5.866;2022-08-04T16:50:18;35.79;35.37
68556;HTU21D;55544;51.032;5.866;2022-08-04T16:52:48;35.82;35.17
68556;HTU21D;55544;51.032;5.866;2022-08-04T16:55:17;35.75;35.15
68556;HTU21D;55544;51.032;5.866;2022-08-04T16:57:51;35.60;35.31
68556;HTU21D;55544;51.032;5.866;2022-08-04T17:00:28;35.43;35.66
68556;HTU21D;55544;51.032;5.866;2022-08-04T17:02:54;35.33;35.95
68556;HTU21D;55544;51.032;5.866;2022-08-04T17:05:24;35.29;36.16
68556;HTU21D;55544;51.032;5.866;2022-08-04T17:07:52;35.27;36.07
68556;HTU21D;55544;51.032;5.866;2022-08-04T17:10:29;35.22;35.97
68556;HTU21D;55544;51.032;5.866;2022-08-04T17:12:55;35.12;35.85
68556;HTU21D;55544;51.032;5.866;2022-08-04T17:15:21;35.04;35.95
68556;HTU21D;55544;51.032;5.866;2022-08-04T17:17:47;34.98;36.02
68556;HTU21D;55544;51.032;5.866;2022-08-04T17:20:13;34.91;36.23
68556;HTU21D;55544;51.032;5.866;2022-08-04T17:22:39;34.81;36.43
68556;HTU21D;55544;51.032;5.866;2022-08-04T17:25:06;34.71;36.49
68556;HTU21D;55544;51.032;5.866;2022-08-04T17:27:32;34.61;36.64
68556;HTU21D;55544;51.032;5.866;2022-08-04T17:29:57;34.53;36.86
68556;HTU21D;55544;51.032;5.866;2022-08-04T17:32:23;34.50;36.93
68556;HTU21D;55544;51.032;5.866;2022-08-04T17:34:52;34.46;36.93
68556;HTU21D;55544;51.032;5.866;2022-08-04T17:37:20;34.37;36.96
68556;HTU21D;55544;51.032;5.866;2022-08-04T17:39:49;34.30;37.24
68556;HTU21D;55544;51.032;5.866;2022-08-04T17:42:27;34.29;37.43
68556;HTU21D;55544;51.032;5.866;2022-08-04T17:45:15;34.22;37.90
68556;HTU21D;55544;51.032;5.866;2022-08-04T17:47:49;34.20;38.03
68556;HTU21D;55544;51.032;5.866;2022-08-04T17:50:26;34.10;38.49
68556;HTU21D;55544;51.032;5.866;2022-08-04T17:53:05;34.09;38.54
68556;HTU21D;55544;51.032;5.866;2022-08-04T17:55:44;34.05;38.63
68556;HTU21D;55544;51.032;5.866;2022-08-04T17:58:22;33.95;38.88
68556;HTU21D;55544;51.032;5.866;2022-08-04T18:00:58;33.86;39.27
68556;HTU21D;55544;51.032;5.866;2022-08-04T18:03:25;33.74;39.72
68556;HTU21D;55544;51.032;5.866;2022-08-04T18:05:52;33.64;39.97
68556;HTU21D;55544;51.032;5.866;2022-08-04T18:08:26;33.51;40.32
68556;HTU21D;55544;51.032;5.866;2022-08-04T18:10:53;33.43;40.77
68556;HTU21D;55544;51.032;5.866;2022-08-04T18:13:26;33.28;41.17
68556;HTU21D;55544;51.032;5.866;2022-08-04T18:16:03;33.16;41.56
68556;HTU21D;55544;51.032;5.866;2022-08-04T18:18:29;33.05;41.88
68556;HTU21D;55544;51.032;5.866;2022-08-04T18:20:55;32.94;42.15
68556;HTU21D;55544;51.032;5.866;2022-08-04T18:23:22;32.84;42.26
68556;HTU21D;55544;51.032;5.866;2022-08-04T18:25:47;32.74;42.45
68556;HTU21D;55544;51.032;5.866;2022-08-04T18:28:13;32.69;42.59
68556;HTU21D;55544;51.032;5.866;2022-08-04T18:30:39;32.62;42.69
68556;HTU21D;55544;51.032;5.866;2022-08-04T18:33:05;32.55;42.82
68556;HTU21D;55544;51.032;5.866;2022-08-04T18:35:33;32.49;43.03
68556;HTU21D;55544;51.032;5.866;2022-08-04T18:38:01;32.41;43.13
68556;HTU21D;55544;51.032;5.866;2022-08-04T18:40:27;32.37;43.37
68556;HTU21D;55544;51.032;5.866;2022-08-04T18:42:53;32.30;43.55
68556;HTU21D;55544;51.032;5.866;2022-08-04T18:45:19;32.26;43.63
68556;HTU21D;55544;51.032;5.866;2022-08-04T18:47:45;32.17;43.71
68556;HTU21D;55544;51.032;5.866;2022-08-04T18:50:10;32.13;43.89
68556;HTU21D;55544;51.032;5.866;2022-08-04T18:52:36;32.12;43.98
68556;HTU21D;55544;51.032;5.866;2022-08-04T18:55:03;32.07;44.13
68556;HTU21D;55544;51.032;5.866;2022-08-04T18:57:29;32.00;44.24
68556;HTU21D;55544;51.032;5.866;2022-08-04T18:59:56;31.96;44.30
68556;HTU21D;55544;51.032;5.866;2022-08-04T19:02:22;31.89;44.38
68556;HTU21D;55544;51.032;5.866;2022-08-04T19:04:48;31.83;44.48
68556;HTU21D;55544;51.032;5.866;2022-08-04T19:07:15;31.73;44.69
68556;HTU21D;55544;51.032;5.866;2022-08-04T19:09:41;31.65;44.68
68556;HTU21D;55544;51.032;5.866;2022-08-04T19:12:07;31.46;44.55
68556;HTU21D;55544;51.032;5.866;2022-08-04T19:14:33;31.30;44.53
68556;HTU21D;55544;51.032;5.866;2022-08-04T19:16:59;31.20;44.51
68556;HTU21D;55544;51.032;5.866;2022-08-04T19:19:25;31.10;44.45
68556;HTU21D;55544;51.032;5.866;2022-08-04T19:21:51;31.02;44.51
68556;HTU21D;55544;51.032;5.866;2022-08-04T19:24:16;30.92;44.66
68556;HTU21D;55544;51.032;5.866;2022-08-04T19:26:42;30.86;44.74
68556;HTU21D;55544;51.032;5.866;2022-08-04T19:29:08;30.83;44.71
68556;HTU21D;55544;51.032;5.866;2022-08-04T19:31:34;30.83;44.77
68556;HTU21D;55544;51.032;5.866;2022-08-04T19:34:00;30.79;44.80
68556;HTU21D;55544;51.032;5.866;2022-08-04T19:36:27;30.76;44.86
68556;HTU21D;55544;51.032;5.866;2022-08-04T19:38:55;30.72;44.99
68556;HTU21D;55544;51.032;5.866;2022-08-04T19:41:21;30.67;44.88
68556;HTU21D;55544;51.032;5.866;2022-08-04T19:43:47;30.63;44.90
68556;HTU21D;55544;51.032;5.866;2022-08-04T19:46:14;30.56;45.06
68556;HTU21D;55544;51.032;5.866;2022-08-04T19:48:40;30.54;45.07
68556;HTU21D;55544;51.032;5.866;2022-08-04T19:51:06;30.52;45.06
68556;HTU21D;55544;51.032;5.866;2022-08-04T19:53:32;30.48;45.06
68556;HTU21D;55544;51.032;5.866;2022-08-04T19:55:58;30.45;45.15
68556;HTU21D;55544;51.032;5.866;2022-08-04T19:58:24;30.44;45.20
68556;HTU21D;55544;51.032;5.866;2022-08-04T20:00:51;30.46;45.20
68556;HTU21D;55544;51.032;5.866;2022-08-04T20:03:16;30.45;45.16
68556;HTU21D;55544;51.032;5.866;2022-08-04T20:05:43;30.39;45.46
68556;HTU21D;55544;51.032;5.866;2022-08-04T20:08:09;30.22;45.73
68556;HTU21D;55544;51.032;5.866;2022-08-04T20:10:35;30.03;45.71
68556;HTU21D;55544;51.032;5.866;2022-08-04T20:13:02;29.86;45.90
68556;HTU21D;55544;51.032;5.866;2022-08-04T20:15:28;29.74;45.47
68556;HTU21D;55544;51.032;5.866;2022-08-04T20:17:54;29.65;45.14
68556;HTU21D;55544;51.032;5.866;2022-08-04T20:20:19;29.52;45.21
68556;HTU21D;55544;51.032;5.866;2022-08-04T20:22:45;29.39;45.32
68556;HTU21D;55544;51.032;5.866;2022-08-04T20:25:11;29.32;45.28
68556;HTU21D;55544;51.032;5.866;2022-08-04T20:27:36;29.32;45.31
68556;HTU21D;55544;51.032;5.866;2022-08-04T20:30:03;29.24;45.07
68556;HTU21D;55544;51.032;5.866;2022-08-04T20:32:29;29.16;45.14
68556;HTU21D;55544;51.032;5.866;2022-08-04T20:34:56;29.04;44.99